sensor_id;sensor_type;location;lat;lon;timestamp;pressure;altitude;pressure_sealevel;temperature;humidity
42691;BME280;28306;55.744;37.578;2023-02-19T00:00:49;98242.38;;;26.12;14.88
42691;BME280;28306;55.744;37.578;2023-02-19T00:03:14;98238.56;;;26.13;14.75
42691;BME280;28306;55.744;37.578;2023-02-19T00:05:40;98238.25;;;26.15;14.63
42691;BME280;28306;55.744;37.578;2023-02-19T00:08:05;98239.03;;;26.15;14.79
42691;BME280;28306;55.744;37.578;2023-02-19T00:10:31;98228.13;;;26.15;14.61
42691;BME280;28306;55.744;37.578;2023-02-19T00:12:56;98230.06;;;26.15;14.70
42691;BME280;28306;55.744;37.578;2023-02-19T00:15:21;98224.63;;;26.15;14.69
42691;BME280;28306;55.744;37.578;2023-02-19T00:17:47;98226.50;;;26.14;14.90
42691;BME280;28306;55.744;37.578;2023-02-19T00:20:12;98224.63;;;26.15;14.81
42691;BME280;28306;55.744;37.578;2023-02-19T00:22:38;98223.00;;;26.14;14.63
42691;BME280;28306;55.744;37.578;2023-02-19T00:25:03;98224.09;;;26.13;14.89
42691;BME280;28306;55.744;37.578;2023-02-19T00:27:29;98219.78;;;26.12;14.77
42691;BME280;28306;55.744;37.578;2023-02-19T00:29:54;98217.06;;;26.12;14.81
42691;BME280;28306;55.744;37.578;2023-02-19T00:32:20;98220.56;;;26.12;14.89
42691;BME280;28306;55.744;37.578;2023-02-19T00:34:45;98212.09;;;26.14;14.68
42691;BME280;28306;55.744;37.578;2023-02-19T00:37:11;98213.19;;;26.13;14.94
42691;BME280;28306;55.744;37.578;2023-02-19T00:39:36;98210.78;;;26.11;14.83
42691;BME280;28306;55.744;37.578;2023-02-19T00:42:02;98206.94;;;26.12;14.66
42691;BME280;28306;55.744;37.578;2023-02-19T00:44:27;98206.16;;;26.12;14.68
42691;BME280;28306;55.744;37.578;2023-02-19T00:46:53;98201.81;;;26.11;14.99
42691;BME280;28306;55.744;37.578;2023-02-19T00:49:19;98205.31;;;26.11;14.90
42691;BME280;28306;55.744;37.578;2023-02-19T00:51:45;98199.06;;;26.11;14.66
42691;BME280;28306;55.744;37.578;2023-02-19T00:54:12;98192.53;;;26.12;15.02
42691;BME280;28306;55.744;37.578;2023-02-19T00:56:38;98183.53;;;26.11;14.99
42691;BME280;28306;55.744;37.578;2023-02-19T00:59:04;98184.34;;;26.12;14.97
42691;BME280;28306;55.744;37.578;2023-02-19T01:01:30;98178.91;;;26.12;14.82
42691;BME280;28306;55.744;37.578;2023-02-19T01:03:55;98177.75;;;26.13;14.77
42691;BME280;28306;55.744;37.578;2023-02-19T01:06:21;98172.31;;;26.13;14.77
42691;BME280;28306;55.744;37.578;2023-02-19T01:08:46;98165.25;;;26.12;14.98
42691;BME280;28306;55.744;37.578;2023-02-19T01:11:12;98166.84;;;26.13;14.88
42691;BME280;28306;55.744;37.578;2023-02-19T01:13:38;98164.44;;;26.11;14.69
42691;BME280;28306;55.744;37.578;2023-02-19T01:16:05;98166.06;;;26.12;14.71
42691;BME280;28306;55.744;37.578;2023-02-19T01:18:31;98168.00;;;26.12;14.81
42691;BME280;28306;55.744;37.578;2023-02-19T01:20:57;98153.22;;;26.13;14.92
42691;BME280;28306;55.744;37.578;2023-02-19T01:23:22;98157.09;;;26.12;14.90
42691;BME280;28306;55.744;37.578;2023-02-19T01:25:48;98148.91;;;26.12;14.96
42691;BME280;28306;55.744;37.578;2023-02-19T01:28:13;98148.09;;;26.11;14.70
42691;BME280;28306;55.744;37.578;2023-02-19T01:30:39;98144.56;;;26.11;14.91
42691;BME280;28306;55.744;37.578;2023-02-19T01:33:05;98155.47;;;26.11;14.84
42691;BME280;28306;55.744;37.578;2023-02-19T01:35:31;98144.88;;;26.09;14.89
42691;BME280;28306;55.744;37.578;2023-02-19T01:37:57;98140.22;;;26.10;14.89
42691;BME280;28306;55.744;37.578;2023-02-19T01:40:23;98144.88;;;26.09;14.73
42691;BME280;28306;55.744;37.578;2023-02-19T01:42:48;98144.09;;;26.08;14.80
42691;BME280;28306;55.744;37.578;2023-02-19T01:45:25;98138.63;;;26.08;14.95
42691;BME280;28306;55.744;37.578;2023-02-19T01:47:53;98137.50;;;26.10;15.06
42691;BME280;28306;55.744;37.578;2023-02-19T01:50:21;98135.91;;;26.08;14.90
42691;BME280;28306;55.744;37.578;2023-02-19T01:52:46;98141.34;;;26.08;14.86
42691;BME280;28306;55.744;37.578;2023-02-19T01:55:12;98145.97;;;26.08;14.92
42691;BME280;28306;55.744;37.578;2023-02-19T01:57:39;98144.38;;;26.07;14.83
42691;BME280;28306;55.744;37.578;2023-02-19T02:00:07;98143.56;;;26.06;15.02
42691;BME280;28306;55.744;37.578;2023-02-19T02:02:40;98130.25;;;26.05;14.86
42691;BME280;28306;55.744;37.578;2023-02-19T02:05:08;98134.91;;;26.04;14.76
42691;BME280;28306;55.744;37.578;2023-02-19T02:07:35;98130.56;;;26.03;14.83
42691;BME280;28306;55.744;37.578;2023-02-19T02:10:19;98139.56;;;26.04;14.89
42691;BME280;28306;55.744;37.578;2023-02-19T02:12:45;98145.81;;;26.04;14.73
42691;BME280;28306;55.744;37.578;2023-02-19T02:15:10;98137.63;;;26.04;14.73
42691;BME280;28306;55.744;37.578;2023-02-19T02:28:16;98124.78;;;26.05;14.97
42691;BME280;28306;55.744;37.578;2023-02-19T02:31:29;98125.63;;;26.05;14.85
42691;BME280;28306;55.744;37.578;2023-02-19T02:33:36;98132.66;;;26.06;14.80
42691;BME280;28306;55.744;37.578;2023-02-19T02:36:06;98125.63;;;26.05;14.79
42691;BME280;28306;55.744;37.578;2023-02-19T02:38:35;98127.22;;;26.06;14.96
42691;BME280;28306;55.744;37.578;2023-02-19T02:41:02;98128.34;;;26.05;14.87
42691;BME280;28306;55.744;37.578;2023-02-19T02:43:29;98126.41;;;26.06;15.05
42691;BME280;28306;55.744;37.578;2023-02-19T02:45:55;98122.06;;;26.05;14.84
42691;BME280;28306;55.744;37.578;2023-02-19T02:53:19;98115.50;;;26.06;15.11
42691;BME280;28306;55.744;37.578;2023-02-19T02:56:06;98116.63;;;26.05;15.11
42691;BME280;28306;55.744;37.578;2023-02-19T02:58:34;98108.44;;;26.05;15.00
42691;BME280;28306;55.744;37.578;2023-02-19T03:01:14;98114.19;;;26.03;15.03
42691;BME280;28306;55.744;37.578;2023-02-19T03:04:01;98113.09;;;26.04;14.77
42691;BME280;28306;55.744;37.578;2023-02-19T03:06:28;98097.53;;;26.05;14.91
42691;BME280;28306;55.744;37.578;2023-02-19T03:09:01;98107.66;;;26.04;14.76
42691;BME280;28306;55.744;37.578;2023-02-19T03:11:31;98104.91;;;26.04;15.13
42691;BME280;28306;55.744;37.578;2023-02-19T03:14:19;98118.53;;;26.04;15.05
42691;BME280;28306;55.744;37.578;2023-02-19T03:17:09;98104.44;;;26.02;14.79
42691;BME280;28306;55.744;37.578;2023-02-19T03:19:57;98109.56;;;26.04;15.07
42691;BME280;28306;55.744;37.578;2023-02-19T03:22:26;98106.03;;;26.03;14.80
42691;BME280;28306;55.744;37.578;2023-02-19T03:25:06;98107.66;;;26.04;14.80
42691;BME280;28306;55.744;37.578;2023-02-19T03:27:52;98099.47;;;26.04;15.06
42691;BME280;28306;55.744;37.578;2023-02-19T03:30:19;98092.41;;;26.03;14.78
42691;BME280;28306;55.744;37.578;2023-02-19T03:32:57;98097.84;;;26.03;14.98
42691;BME280;28306;55.744;37.578;2023-02-19T03:35:32;98098.69;;;26.04;15.09
42691;BME280;28306;55.744;37.578;2023-02-19T03:40:25;98094.03;;;26.04;14.93
42691;BME280;28306;55.744;37.578;2023-02-19T03:45:24;98084.22;;;26.03;14.91
42691;BME280;28306;55.744;37.578;2023-02-19T03:47:54;98081.50;;;26.03;14.84
42691;BME280;28306;55.744;37.578;2023-02-19T03:53:11;98086.16;;;26.03;14.80
42691;BME280;28306;55.744;37.578;2023-02-19T03:58:26;98071.72;;;26.02;15.07
42691;BME280;28306;55.744;37.578;2023-02-19T04:00:56;98077.19;;;26.02;14.79
42691;BME280;28306;55.744;37.578;2023-02-19T04:04:06;98077.97;;;26.03;14.97
42691;BME280;28306;55.744;37.578;2023-02-19T04:06:13;98077.19;;;26.02;14.97
42691;BME280;28306;55.744;37.578;2023-02-19T04:08:39;98067.38;;;26.01;14.87
42691;BME280;28306;55.744;37.578;2023-02-19T04:11:07;98077.19;;;26.02;15.17
42691;BME280;28306;55.744;37.578;2023-02-19T04:13:36;98074.47;;;26.02;14.97
42691;BME280;28306;55.744;37.578;2023-02-19T04:16:08;98074.47;;;26.02;14.99
42691;BME280;28306;55.744;37.578;2023-02-19T04:18:37;98074.47;;;26.02;15.04
42691;BME280;28306;55.744;37.578;2023-02-19T04:21:03;98073.63;;;26.02;15.03
42691;BME280;28306;55.744;37.578;2023-02-19T04:23:32;98070.91;;;26.02;15.00
42691;BME280;28306;55.744;37.578;2023-02-19T04:25:59;98063.56;;;26.02;14.96
42691;BME280;28306;55.744;37.578;2023-02-19T04:28:26;98067.38;;;26.01;15.10
42691;BME280;28306;55.744;37.578;2023-02-19T04:30:52;98064.66;;;26.01;14.83
42691;BME280;28306;55.744;37.578;2023-02-19T04:33:17;98075.25;;;26.03;15.04
42691;BME280;28306;55.744;37.578;2023-02-19T04:35:43;98061.63;;;26.03;14.77
42691;BME280;28306;55.744;37.578;2023-02-19T04:38:08;98071.72;;;26.02;14.80
42691;BME280;28306;55.744;37.578;2023-02-19T04:40:34;98053.75;;;26.01;15.19
42691;BME280;28306;55.744;37.578;2023-02-19T04:42:59;98059.22;;;26.01;15.08
42691;BME280;28306;55.744;37.578;2023-02-19T04:45:25;98058.09;;;26.02;14.90
42691;BME280;28306;55.744;37.578;2023-02-19T04:47:50;98067.88;;;26.03;14.86
42691;BME280;28306;55.744;37.578;2023-02-19T04:50:16;98061.63;;;26.03;14.92
42691;BME280;28306;55.744;37.578;2023-02-19T04:52:41;98053.75;;;26.01;14.84
42691;BME280;28306;55.744;37.578;2023-02-19T04:55:07;98062.72;;;26.02;14.97
42691;BME280;28306;55.744;37.578;2023-02-19T04:57:33;98059.22;;;26.01;15.00
42691;BME280;28306;55.744;37.578;2023-02-19T04:59:59;98054.56;;;26.02;14.87
42691;BME280;28306;55.744;37.578;2023-02-19T05:02:24;98048.31;;;26.01;15.12
42691;BME280;28306;55.744;37.578;2023-02-19T05:04:49;98053.75;;;26.01;14.92
42691;BME280;28306;55.744;37.578;2023-02-19T05:07:15;98055.69;;;26.01;15.08
42691;BME280;28306;55.744;37.578;2023-02-19T05:09:40;98056.50;;;26.01;14.83
42691;BME280;28306;55.744;37.578;2023-02-19T05:12:06;98041.28;;;26.00;15.00
42691;BME280;28306;55.744;37.578;2023-02-19T05:14:31;98052.19;;;26.00;15.00
42691;BME280;28306;55.744;37.578;2023-02-19T05:16:57;98045.09;;;25.99;15.16
42691;BME280;28306;55.744;37.578;2023-02-19T05:19:22;98039.66;;;25.99;14.81
42691;BME280;28306;55.744;37.578;2023-02-19T05:21:48;98043.47;;;25.98;14.94
42691;BME280;28306;55.744;37.578;2023-02-19T05:24:13;98042.38;;;25.99;15.19
42691;BME280;28306;55.744;37.578;2023-02-19T05:26:38;98036.94;;;25.99;15.00
42691;BME280;28306;55.744;37.578;2023-02-19T05:29:04;98033.09;;;26.00;15.23
42691;BME280;28306;55.744;37.578;2023-02-19T05:31:29;98043.16;;;26.00;15.14
42691;BME280;28306;55.744;37.578;2023-02-19T05:33:58;98034.19;;;25.99;14.90
42691;BME280;28306;55.744;37.578;2023-02-19T05:36:23;98020.59;;;25.99;14.88
42691;BME280;28306;55.744;37.578;2023-02-19T05:38:55;98030.38;;;26.00;15.08
42691;BME280;28306;55.744;37.578;2023-02-19T05:41:22;98024.09;;;26.00;14.93
42691;BME280;28306;55.744;37.578;2023-02-19T05:43:48;98025.72;;;26.01;15.05
42691;BME280;28306;55.744;37.578;2023-02-19T05:46:14;98026.81;;;26.00;15.20
42691;BME280;28306;55.744;37.578;2023-02-19T05:48:40;98024.91;;;26.00;14.90
42691;BME280;28306;55.744;37.578;2023-02-19T05:51:07;98021.06;;;26.01;15.04
42691;BME280;28306;55.744;37.578;2023-02-19T05:53:33;98025.72;;;26.01;15.08
42691;BME280;28306;55.744;37.578;2023-02-19T05:55:59;98030.38;;;26.00;14.97
42691;BME280;28306;55.744;37.578;2023-02-19T05:58:25;98024.56;;;26.02;15.09
42691;BME280;28306;55.744;37.578;2023-02-19T06:00:51;98023.00;;;26.01;14.97
42691;BME280;28306;55.744;37.578;2023-02-19T06:03:16;98021.06;;;26.01;14.86
42691;BME280;28306;55.744;37.578;2023-02-19T06:05:42;98022.69;;;26.02;14.87
42691;BME280;28306;55.744;37.578;2023-02-19T06:08:08;98017.22;;;26.02;14.96
42691;BME280;28306;55.744;37.578;2023-02-19T06:10:35;98019.66;;;26.04;14.87
42691;BME280;28306;55.744;37.578;2023-02-19T06:13:01;98027.50;;;26.05;15.03
42691;BME280;28306;55.744;37.578;2023-02-19T06:15:27;98022.84;;;26.06;15.18
42691;BME280;28306;55.744;37.578;2023-02-19T06:17:52;98022.84;;;26.06;15.05
42691;BME280;28306;55.744;37.578;2023-02-19T06:20:18;98013.06;;;26.05;15.04
42691;BME280;28306;55.744;37.578;2023-02-19T06:22:43;98024.78;;;26.05;15.06
42691;BME280;28306;55.744;37.578;2023-02-19T06:25:09;98021.75;;;26.07;15.13
42691;BME280;28306;55.744;37.578;2023-02-19T06:27:37;98023.34;;;26.08;15.08
42691;BME280;28306;55.744;37.578;2023-02-19T06:30:02;98014.38;;;26.07;15.08
42691;BME280;28306;55.744;37.578;2023-02-19T06:32:28;98014.38;;;26.07;14.89
42691;BME280;28306;55.744;37.578;2023-02-19T06:34:53;98015.97;;;26.08;15.00
42691;BME280;28306;55.744;37.578;2023-02-19T06:37:19;98021.44;;;26.08;14.98
42691;BME280;28306;55.744;37.578;2023-02-19T06:39:44;98014.06;;;26.09;14.96
42691;BME280;28306;55.744;37.578;2023-02-19T06:42:09;98003.16;;;26.09;15.08
42691;BME280;28306;55.744;37.578;2023-02-19T06:44:35;98005.56;;;26.11;14.86
42691;BME280;28306;55.744;37.578;2023-02-19T06:47:02;98001.72;;;26.12;14.83
42691;BME280;28306;55.744;37.578;2023-02-19T06:49:28;98005.25;;;26.12;14.90
42691;BME280;28306;55.744;37.578;2023-02-19T06:51:53;98006.03;;;26.13;14.88
42691;BME280;28306;55.744;37.578;2023-02-19T06:54:19;98005.72;;;26.14;14.97
42691;BME280;28306;55.744;37.578;2023-02-19T06:56:44;97993.72;;;26.15;15.00
42691;BME280;28306;55.744;37.578;2023-02-19T06:59:11;97996.13;;;26.17;15.14
42691;BME280;28306;55.744;37.578;2023-02-19T07:01:37;97991.47;;;26.17;14.89
42691;BME280;28306;55.744;37.578;2023-02-19T07:04:03;97987.63;;;26.18;14.89
42691;BME280;28306;55.744;37.578;2023-02-19T07:06:29;97983.50;;;26.21;15.02
42691;BME280;28306;55.744;37.578;2023-02-19T07:08:55;97987.81;;;26.22;15.14
42691;BME280;28306;55.744;37.578;2023-02-19T07:11:21;97977.72;;;26.22;14.82
42691;BME280;28306;55.744;37.578;2023-02-19T07:13:46;97976.91;;;26.22;14.90
42691;BME280;28306;55.744;37.578;2023-02-19T07:16:12;97985.59;;;26.24;14.94
42691;BME280;28306;55.744;37.578;2023-02-19T07:18:38;97971.97;;;26.24;14.89
42691;BME280;28306;55.744;37.578;2023-02-19T07:21:05;97967.31;;;26.24;14.87
42691;BME280;28306;55.744;37.578;2023-02-19T07:23:31;97978.69;;;26.26;15.02
42691;BME280;28306;55.744;37.578;2023-02-19T07:25:56;97967.78;;;26.26;15.07
42691;BME280;28306;55.744;37.578;2023-02-19T07:28:22;97968.59;;;26.27;14.75
42691;BME280;28306;55.744;37.578;2023-02-19T07:30:47;97965.88;;;26.27;14.81
42691;BME280;28306;55.744;37.578;2023-02-19T07:33:13;97958.50;;;26.28;14.74
42691;BME280;28306;55.744;37.578;2023-02-19T07:35:44;97962.00;;;26.28;14.74
42691;BME280;28306;55.744;37.578;2023-02-19T07:38:09;97953.84;;;26.28;14.87
42691;BME280;28306;55.744;37.578;2023-02-19T07:40:35;97955.78;;;26.28;14.83
42691;BME280;28306;55.744;37.578;2023-02-19T07:43:01;97963.16;;;26.27;14.85
42691;BME280;28306;55.744;37.578;2023-02-19T07:45:26;97954.97;;;26.27;14.96
42691;BME280;28306;55.744;37.578;2023-02-19T07:47:52;97963.47;;;26.25;14.87
42691;BME280;28306;55.744;37.578;2023-02-19T07:50:17;97948.38;;;26.28;14.79
42691;BME280;28306;55.744;37.578;2023-02-19T07:52:43;97952.25;;;26.27;14.78
42691;BME280;28306;55.744;37.578;2023-02-19T07:55:08;97948.38;;;26.28;14.80
42691;BME280;28306;55.744;37.578;2023-02-19T07:57:34;97955.44;;;26.29;15.09
42691;BME280;28306;55.744;37.578;2023-02-19T07:59:59;97949.38;;;26.32;14.88
42691;BME280;28306;55.744;37.578;2023-02-19T08:02:25;97945.53;;;26.33;14.80
42691;BME280;28306;55.744;37.578;2023-02-19T08:05:09;97941.97;;;26.33;14.88
42691;BME280;28306;55.744;37.578;2023-02-19T08:07:35;97941.66;;;26.34;15.04
42691;BME280;28306;55.744;37.578;2023-02-19T08:10:01;97938.94;;;26.34;14.88
42691;BME280;28306;55.744;37.578;2023-02-19T08:12:56;97933.16;;;26.36;15.04
42691;BME280;28306;55.744;37.578;2023-02-19T08:15:40;97937.50;;;26.37;14.79
42691;BME280;28306;55.744;37.578;2023-02-19T08:18:06;97932.06;;;26.37;14.70
42691;BME280;28306;55.744;37.578;2023-02-19T08:20:32;97936.69;;;26.36;14.83
42691;BME280;28306;55.744;37.578;2023-02-19T08:22:57;97932.38;;;26.35;14.70
42691;BME280;28306;55.744;37.578;2023-02-19T08:25:23;97941.03;;;26.37;14.83
42691;BME280;28306;55.744;37.578;2023-02-19T08:27:48;97930.13;;;26.37;14.74
42691;BME280;28306;55.744;37.578;2023-02-19T08:30:14;97929.81;;;26.39;14.90
42691;BME280;28306;55.744;37.578;2023-02-19T08:32:39;97937.69;;;26.40;14.65
42691;BME280;28306;55.744;37.578;2023-02-19T08:35:05;97929.19;;;26.42;14.70
42691;BME280;28306;55.744;37.578;2023-02-19T08:37:30;97932.38;;;26.44;14.89
42691;BME280;28306;55.744;37.578;2023-02-19T08:39:56;97925.81;;;26.45;14.91
42691;BME280;28306;55.744;37.578;2023-02-19T08:42:21;97923.09;;;26.45;14.89
42691;BME280;28306;55.744;37.578;2023-02-19T08:44:47;97925.81;;;26.45;14.67
42691;BME280;28306;55.744;37.578;2023-02-19T08:47:12;97920.38;;;26.45;14.70
42691;BME280;28306;55.744;37.578;2023-02-19T08:49:38;97930.16;;;26.46;14.67
42691;BME280;28306;55.744;37.578;2023-02-19T08:52:03;97923.88;;;26.46;14.73
42691;BME280;28306;55.744;37.578;2023-02-19T08:54:29;97923.09;;;26.45;14.60
42691;BME280;28306;55.744;37.578;2023-02-19T08:56:54;97916.53;;;26.46;14.96
42691;BME280;28306;55.744;37.578;2023-02-19T08:59:19;97918.94;;;26.48;14.71
42691;BME280;28306;55.744;37.578;2023-02-19T09:01:45;97914.59;;;26.47;14.76
42691;BME280;28306;55.744;37.578;2023-02-19T09:04:11;97913.78;;;26.46;14.79
42691;BME280;28306;55.744;37.578;2023-02-19T09:06:37;97905.63;;;26.46;14.73
42691;BME280;28306;55.744;37.578;2023-02-19T09:09:02;97904.47;;;26.47;14.72
42691;BME280;28306;55.744;37.578;2023-02-19T09:11:28;97899.84;;;26.48;14.81
42691;BME280;28306;55.744;37.578;2023-02-19T09:13:54;97891.66;;;26.48;14.77
42691;BME280;28306;55.744;37.578;2023-02-19T09:16:19;97897.13;;;26.48;14.64
42691;BME280;28306;55.744;37.578;2023-02-19T09:18:45;97894.72;;;26.46;14.65
42691;BME280;28306;55.744;37.578;2023-02-19T09:21:10;97889.25;;;26.46;14.69
42691;BME280;28306;55.744;37.578;2023-02-19T09:23:36;97895.50;;;26.47;14.83
42691;BME280;28306;55.744;37.578;2023-02-19T09:26:02;97895.50;;;26.47;14.73
42691;BME280;28306;55.744;37.578;2023-02-19T09:28:31;97904.47;;;26.47;14.89
42691;BME280;28306;55.744;37.578;2023-02-19T09:30:56;97892.78;;;26.47;14.84
42691;BME280;28306;55.744;37.578;2023-02-19T09:33:22;97885.06;;;26.49;14.75
42691;BME280;28306;55.744;37.578;2023-02-19T09:35:47;97880.75;;;26.48;14.68
42691;BME280;28306;55.744;37.578;2023-02-19T09:38:13;97878.81;;;26.48;14.60
42691;BME280;28306;55.744;37.578;2023-02-19T09:40:38;97870.63;;;26.48;14.73
42691;BME280;28306;55.744;37.578;2023-02-19T09:43:12;97871.44;;;26.49;14.82
42691;BME280;28306;55.744;37.578;2023-02-19T09:45:40;97874.97;;;26.49;14.66
42691;BME280;28306;55.744;37.578;2023-02-19T09:48:06;97873.06;;;26.50;14.65
42691;BME280;28306;55.744;37.578;2023-02-19T09:50:44;97870.31;;;26.50;14.94
42691;BME280;28306;55.744;37.578;2023-02-19T09:53:14;97873.19;;;26.53;14.89
42691;BME280;28306;55.744;37.578;2023-02-19T09:55:41;97867.44;;;26.55;14.84
42691;BME280;28306;55.744;37.578;2023-02-19T09:58:13;97869.84;;;26.56;14.83
42691;BME280;28306;55.744;37.578;2023-02-19T10:00:41;97871.44;;;26.57;14.60
42691;BME280;28306;55.744;37.578;2023-02-19T10:03:10;97867.94;;;26.57;14.68
42691;BME280;28306;55.744;37.578;2023-02-19T10:05:37;97860.22;;;26.59;14.67
42691;BME280;28306;55.744;37.578;2023-02-19T10:08:04;97859.44;;;26.58;14.68
42691;BME280;28306;55.744;37.578;2023-02-19T10:10:32;97860.22;;;26.59;14.58
42691;BME280;28306;55.744;37.578;2023-02-19T10:13:10;97857.81;;;26.57;14.84
42691;BME280;28306;55.744;37.578;2023-02-19T10:15:40;97862.47;;;26.57;14.74
42691;BME280;28306;55.744;37.578;2023-02-19T10:18:09;97862.47;;;26.57;14.69
42691;BME280;28306;55.744;37.578;2023-02-19T10:20:35;97857.03;;;26.57;14.79
42691;BME280;28306;55.744;37.578;2023-02-19T10:23:07;97862.47;;;26.57;14.69
42691;BME280;28306;55.744;37.578;2023-02-19T10:25:33;97854.63;;;26.55;14.81
42691;BME280;28306;55.744;37.578;2023-02-19T10:27:59;97857.34;;;26.55;14.78
42691;BME280;28306;55.744;37.578;2023-02-19T10:30:29;97858.59;;;26.58;14.69
42691;BME280;28306;55.744;37.578;2023-02-19T10:33:09;97861.03;;;26.59;14.82
42691;BME280;28306;55.744;37.578;2023-02-19T10:35:55;97859.91;;;26.60;14.88
42691;BME280;28306;55.744;37.578;2023-02-19T10:38:22;97856.53;;;26.64;14.75
42691;BME280;28306;55.744;37.578;2023-02-19T10:40:49;97864.72;;;26.64;14.69
42691;BME280;28306;55.744;37.578;2023-02-19T10:43:21;97857.03;;;26.66;14.58
42691;BME280;28306;55.744;37.578;2023-02-19T10:45:55;97862.50;;;26.66;14.66
42691;BME280;28306;55.744;37.578;2023-02-19T10:48:22;97861.72;;;26.65;14.61
42691;BME280;28306;55.744;37.578;2023-02-19T10:50:51;97858.66;;;26.67;14.65
42691;BME280;28306;55.744;37.578;2023-02-19T10:53:23;97852.41;;;26.66;14.71
42691;BME280;28306;55.744;37.578;2023-02-19T10:56:06;97853.19;;;26.67;14.82
42691;BME280;28306;55.744;37.578;2023-02-19T10:58:32;97846.94;;;26.66;14.93
42691;BME280;28306;55.744;37.578;2023-02-19T11:01:09;97852.06;;;26.68;14.55
42691;BME280;28306;55.744;37.578;2023-02-19T11:03:36;97851.25;;;26.67;14.62
42691;BME280;28306;55.744;37.578;2023-02-19T11:06:02;97844.69;;;26.68;14.60
42691;BME280;28306;55.744;37.578;2023-02-19T11:08:28;97845.16;;;26.70;14.88
42691;BME280;28306;55.744;37.578;2023-02-19T11:10:54;97845.63;;;26.72;15.10
42691;BME280;28306;55.744;37.578;2023-02-19T11:13:29;97844.19;;;26.75;14.89
42691;BME280;28306;55.744;37.578;2023-02-19T11:15:56;97837.78;;;26.79;15.08
42691;BME280;28306;55.744;37.578;2023-02-19T11:18:26;97833.31;;;26.84;15.25
42691;BME280;28306;55.744;37.578;2023-02-19T11:23:31;97837.47;;;26.90;15.00
42691;BME280;28306;55.744;37.578;2023-02-19T11:25:59;97830.22;;;26.94;15.01
42691;BME280;28306;55.744;37.578;2023-02-19T11:28:34;97831.84;;;26.95;15.00
42691;BME280;28306;55.744;37.578;2023-02-19T11:33:44;97835.69;;;26.94;14.97
42691;BME280;28306;55.744;37.578;2023-02-19T11:36:20;97838.59;;;26.89;15.13
42691;BME280;28306;55.744;37.578;2023-02-19T11:38:47;97829.94;;;26.87;15.27
42691;BME280;28306;55.744;37.578;2023-02-19T11:49:14;97827.84;;;26.84;15.29
42691;BME280;28306;55.744;37.578;2023-02-19T11:56:44;97827.66;;;26.80;15.50
42691;BME280;28306;55.744;37.578;2023-02-19T11:59:28;97823.34;;;26.79;15.18
42691;BME280;28306;55.744;37.578;2023-02-19T12:02:39;97834.59;;;26.77;15.21
42691;BME280;28306;55.744;37.578;2023-02-19T12:07:43;97821.75;;;26.78;15.25
42691;BME280;28306;55.744;37.578;2023-02-19T12:10:19;97823.69;;;26.77;15.42
42691;BME280;28306;55.744;37.578;2023-02-19T12:12:52;97824.47;;;26.78;15.24
42691;BME280;28306;55.744;37.578;2023-02-19T12:15:30;97824.78;;;26.76;15.10
42691;BME280;28306;55.744;37.578;2023-02-19T12:18:07;97819.31;;;26.76;15.08
42691;BME280;28306;55.744;37.578;2023-02-19T12:25:51;97824.97;;;26.71;15.29
42691;BME280;28306;55.744;37.578;2023-02-19T12:38:57;97815.00;;;26.67;15.17
42691;BME280;28306;55.744;37.578;2023-02-19T12:41:35;97817.25;;;26.65;15.06
42691;BME280;28306;55.744;37.578;2023-02-19T12:44:17;97819.97;;;26.65;15.17
42691;BME280;28306;55.744;37.578;2023-02-19T12:46:47;97835.50;;;26.64;15.13
42691;BME280;28306;55.744;37.578;2023-02-19T12:49:16;97823.00;;;26.63;15.21
42691;BME280;28306;55.744;37.578;2023-02-19T12:51:54;97828.47;;;26.63;15.26
42691;BME280;28306;55.744;37.578;2023-02-19T12:54:26;97828.47;;;26.63;15.12
42691;BME280;28306;55.744;37.578;2023-02-19T12:59:40;97827.31;;;26.64;15.21
42691;BME280;28306;55.744;37.578;2023-02-19T13:02:17;97832.78;;;26.64;15.25
42691;BME280;28306;55.744;37.578;2023-02-19T13:04:58;97836.66;;;26.63;15.14
42691;BME280;28306;55.744;37.578;2023-02-19T13:07:34;97826.38;;;26.60;15.42
42691;BME280;28306;55.744;37.578;2023-02-19T13:12:45;97832.94;;;26.59;15.32
42691;BME280;28306;55.744;37.578;2023-02-19T13:15:14;97831.34;;;26.58;15.55
42691;BME280;28306;55.744;37.578;2023-02-19T13:17:48;97834.38;;;26.56;15.41
42691;BME280;28306;55.744;37.578;2023-02-19T13:22:41;97831.97;;;26.55;15.56
42691;BME280;28306;55.744;37.578;2023-02-19T13:25:36;97832.28;;;26.53;15.36
42691;BME280;28306;55.744;37.578;2023-02-19T13:28:07;97825.25;;;26.52;15.65
42691;BME280;28306;55.744;37.578;2023-02-19T13:30:59;97830.38;;;26.54;15.71
42691;BME280;28306;55.744;37.578;2023-02-19T13:33:37;97829.88;;;26.52;15.78
42691;BME280;28306;55.744;37.578;2023-02-19T13:36:14;97822.84;;;26.51;15.81
42691;BME280;28306;55.744;37.578;2023-02-19T13:38:42;97828.31;;;26.51;15.74
42691;BME280;28306;55.744;37.578;2023-02-19T13:41:25;97823.66;;;26.51;15.96
42691;BME280;28306;55.744;37.578;2023-02-19T13:43:56;97831.81;;;26.51;15.83
42691;BME280;28306;55.744;37.578;2023-02-19T13:46:22;97822.84;;;26.51;15.63
42691;BME280;28306;55.744;37.578;2023-02-19T13:48:48;97817.41;;;26.51;15.50
42691;BME280;28306;55.744;37.578;2023-02-19T13:53:59;97823.16;;;26.49;15.62
42691;BME280;28306;55.744;37.578;2023-02-19T14:04:17;97816.41;;;26.47;15.70
42691;BME280;28306;55.744;37.578;2023-02-19T14:14:44;97806.63;;;26.46;15.71
42691;BME280;28306;55.744;37.578;2023-02-19T14:24:52;97809.66;;;26.44;15.50
42691;BME280;28306;55.744;37.578;2023-02-19T14:27:18;97800.69;;;26.43;15.76
42691;BME280;28306;55.744;37.578;2023-02-19T14:29:44;97802.63;;;26.43;15.51
42691;BME280;28306;55.744;37.578;2023-02-19T14:32:15;97806.78;;;26.40;15.33
42691;BME280;28306;55.744;37.578;2023-02-19T14:34:43;97798.59;;;26.40;15.50